createdAt,value
2023-03-23T15:58:18.897Z,56.70
2023-03-23T16:00:49.060Z,57.40
2023-03-23T16:03:25.321Z,56.80
2023-03-23T16:05:53.019Z,56.90
2023-03-23T16:08:20.454Z,56.90
2023-03-23T16:10:48.849Z,56.80
2023-03-23T16:13:16.838Z,56.80
2023-03-23T16:15:46.323Z,57.00
2023-03-23T16:18:19.084Z,57.00
2023-03-23T16:20:48.075Z,56.90
2023-03-23T16:23:15.642Z,56.80
2023-03-23T16:25:43.252Z,56.90
2023-03-23T16:28:15.314Z,57.10
2023-03-23T16:30:44.155Z,57.30
2023-03-23T16:33:11.549Z,57.20
2023-03-23T16:35:39.440Z,57.20
2023-03-23T16:38:09.015Z,57.10
2023-03-23T16:40:37.523Z,57.10
2023-03-23T16:43:08.432Z,57.20
2023-03-23T16:45:41.604Z,57.30
2023-03-23T16:48:12.184Z,57.30
2023-03-23T16:50:39.803Z,57.40
2023-03-23T16:53:08.394Z,57.30
2023-03-23T16:55:37.200Z,57.30
2023-03-23T16:58:16.156Z,57.50
2023-03-23T17:00:48.965Z,57.50
2023-03-23T17:03:18.050Z,57.50
2023-03-23T17:05:48.065Z,57.60
2023-03-23T17:08:15.946Z,57.60
2023-03-23T17:10:44.071Z,57.60
2023-03-23T17:13:12.144Z,57.70
2023-03-23T17:15:43.662Z,57.70
2023-03-23T17:18:13.137Z,57.70
2023-03-23T17:20:40.713Z,57.70
2023-03-23T17:23:08.074Z,57.80
2023-03-23T17:25:35.661Z,57.90
2023-03-23T17:28:05.803Z,57.90
2023-03-23T17:30:35.230Z,57.90
2023-03-23T17:33:03.107Z,57.90
2023-03-23T17:35:30.430Z,58.00
2023-03-23T17:37:58.094Z,58.00
2023-03-23T17:40:25.756Z,58.00
2023-03-23T17:42:53.269Z,58.10
2023-03-23T17:45:20.551Z,58.20
2023-03-23T17:47:48.151Z,58.10
2023-03-23T17:50:15.546Z,58.80
2023-03-23T17:52:43.616Z,58.20
2023-03-23T17:55:11.699Z,58.30
2023-03-23T17:57:39.163Z,58.40
2023-03-23T18:00:08.953Z,58.60
2023-03-23T18:02:37.272Z,58.50
2023-03-23T18:05:06.428Z,58.70
2023-03-23T18:07:33.819Z,58.80
2023-03-23T18:10:01.469Z,58.80
2023-03-23T18:12:28.886Z,58.80
2023-03-23T18:14:59.468Z,59.00
2023-03-23T18:17:27.117Z,59.30
2023-03-23T18:19:55.331Z,59.30
2023-03-23T18:22:23.054Z,59.20
2023-03-23T18:24:50.478Z,59.40
2023-03-23T18:27:18.882Z,59.50
2023-03-23T18:29:46.404Z,59.40
2023-03-23T18:32:13.899Z,59.30
2023-03-23T18:34:42.998Z,59.50
2023-03-23T18:37:10.774Z,59.50
2023-03-23T18:39:39.151Z,59.60
2023-03-23T18:42:06.767Z,59.70
2023-03-23T18:44:34.849Z,59.60
2023-03-23T18:47:02.395Z,59.60
2023-03-23T18:49:30.404Z,59.80
2023-03-23T18:51:57.670Z,59.90
2023-03-23T18:54:25.147Z,59.90
2023-03-23T18:56:52.540Z,60.00
2023-03-23T18:59:19.965Z,60.00
2023-03-23T19:01:49.623Z,60.20
2023-03-23T19:04:17.477Z,60.30
2023-03-23T19:06:44.813Z,60.30
2023-03-23T19:09:12.055Z,60.40
2023-03-23T19:11:39.479Z,60.30
2023-03-23T19:14:06.698Z,60.50
2023-03-23T19:16:38.292Z,60.40
2023-03-23T19:19:08.248Z,60.40
2023-03-23T19:21:37.574Z,60.30
2023-03-23T19:24:07.082Z,60.30
2023-03-23T19:26:43.443Z,60.60
2023-03-23T19:31:46.151Z,60.80
2023-03-23T19:34:15.112Z,61.00
2023-03-23T19:36:50.266Z,61.60
2023-03-23T19:39:22.161Z,61.20
2023-03-23T19:41:50.989Z,61.10
2023-03-23T19:44:18.598Z,61.10
2023-03-23T19:46:46.232Z,61.40
2023-03-23T19:49:14.732Z,61.60
2023-03-23T19:51:42.481Z,61.60
2023-03-23T19:54:10.067Z,61.60
2023-03-23T19:56:38.504Z,61.60
2023-03-23T19:59:07.843Z,61.60
2023-03-23T20:01:35.528Z,61.60
2023-03-23T20:04:05.089Z,61.70
2023-03-23T20:06:33.553Z,61.60
2023-03-23T20:09:01.431Z,61.80
2023-03-23T20:11:29.523Z,62.00
2023-03-23T20:13:57.732Z,62.30
2023-03-23T20:16:25.553Z,62.40
2023-03-23T20:18:53.650Z,62.40
2023-03-23T20:21:22.952Z,62.70
2023-03-23T20:23:57.518Z,62.80
2023-03-23T20:26:37.284Z,63.00
2023-03-23T20:29:05.109Z,63.20
2023-03-23T20:31:36.753Z,62.80
2023-03-23T20:34:08.484Z,63.00
2023-03-23T20:36:42.234Z,62.90
2023-03-23T20:39:14.126Z,63.50
2023-03-23T20:41:43.212Z,63.60
2023-03-23T20:44:13.994Z,63.40
2023-03-23T20:46:46.542Z,63.90
2023-03-23T20:49:15.768Z,64.00
2023-03-23T20:51:44.679Z,63.80
2023-03-23T20:54:15.618Z,63.80
2023-03-23T20:56:44.233Z,63.80
2023-03-23T20:59:12.364Z,64.20
2023-03-23T21:01:40.355Z,64.40
2023-03-23T21:04:14.809Z,64.50
2023-03-23T21:06:44.056Z,64.60
2023-03-23T21:09:12.940Z,64.50
2023-03-23T21:11:40.555Z,64.50
2023-03-23T21:14:08.754Z,64.50
2023-03-23T21:16:36.218Z,64.70
2023-03-23T21:19:05.222Z,64.90
2023-03-23T21:21:34.106Z,65.20
2023-03-23T21:24:01.373Z,65.30
2023-03-23T21:26:29.869Z,65.40
2023-03-23T21:29:01.038Z,65.50
2023-03-23T21:31:31.525Z,65.50
2023-03-23T21:33:59.569Z,65.60
2023-03-23T21:36:27.911Z,65.70
2023-03-23T21:38:55.981Z,65.50
2023-03-23T21:41:23.985Z,65.40
2023-03-23T21:43:51.496Z,65.40
2023-03-23T21:46:19.005Z,65.60
2023-03-23T21:48:51.722Z,65.60
2023-03-23T21:51:25.260Z,65.60
2023-03-23T21:53:54.474Z,65.60
2023-03-23T21:56:25.018Z,65.50
2023-03-23T21:58:52.600Z,65.50
2023-03-23T22:01:20.557Z,65.40
2023-03-23T22:03:48.372Z,65.40
2023-03-23T22:06:20.786Z,65.40
2023-03-23T22:08:48.361Z,65.30
2023-03-23T22:11:23.199Z,65.20
2023-03-23T22:13:52.720Z,65.10
2023-03-23T22:16:21.595Z,65.10
2023-03-23T22:18:51.197Z,65.10
2023-03-23T22:21:21.841Z,65.10
2023-03-23T22:23:49.339Z,65.00
2023-03-23T22:26:17.110Z,65.00
2023-03-23T22:28:46.527Z,64.80
2023-03-23T22:31:18.520Z,64.70
2023-03-23T22:33:47.630Z,64.70
2023-03-23T22:36:16.584Z,64.50
2023-03-23T22:38:46.199Z,64.50
2023-03-23T22:41:19.368Z,64.40
2023-03-23T22:43:47.530Z,64.30
2023-03-23T22:46:16.445Z,64.20
2023-03-23T22:48:44.846Z,64.10
2023-03-23T22:51:14.986Z,64.10
2023-03-23T22:53:42.805Z,64.20
2023-03-23T22:56:11.014Z,64.20
2023-03-23T22:58:38.943Z,64.10
2023-03-23T23:01:09.459Z,64.10
2023-03-23T23:03:38.021Z,64.20
2023-03-23T23:06:05.914Z,64.10
2023-03-23T23:08:34.120Z,64.10
2023-03-23T23:11:03.532Z,64.10
2023-03-23T23:13:33.124Z,64.00
2023-03-23T23:16:02.074Z,63.90
2023-03-23T23:18:30.713Z,63.90
2023-03-23T23:20:59.854Z,64.00
2023-03-23T23:23:28.498Z,64.10
2023-03-23T23:25:57.100Z,64.30
2023-03-23T23:28:25.005Z,64.40
2023-03-23T23:30:52.975Z,64.30
2023-03-23T23:33:21.026Z,64.20
2023-03-23T23:35:48.904Z,64.30
2023-03-23T23:38:16.677Z,64.40
2023-03-23T23:40:46.017Z,64.40
2023-03-23T23:43:15.580Z,64.50
2023-03-23T23:45:43.825Z,64.50
2023-03-23T23:48:12.484Z,65.50
2023-03-23T23:50:39.885Z,64.70
2023-03-23T23:53:09.754Z,64.60
2023-03-23T23:55:39.446Z,64.70
2023-03-23T23:58:07.282Z,64.60
